Time;durP1;ratioP1;P1;durP2;ratioP2;P2;SDS_P1;SDS_P2;PMS_P1;PMS_P2;Temp;Humidity;BMP_temperature;BMP_pressure;BME280_temperature;BME280_humidity;BME280_pressure;Samples;Min_cycle;Max_cycle;Signal;HPM_P1;HPM_P2
2022/05/03 00:00:22;;;;;;;6.65;6.00;;;14.60;57.50;;;;;;5011180;28;20233;-72
2022/05/03 00:02:56;;;;;;;9.60;7.20;;;14.50;57.30;;;;;;5011254;28;20313;-72
2022/05/03 00:05:35;;;;;;;7.00;6.05;;;14.50;57.50;;;;;;4996564;28;21126;-72
2022/05/03 00:08:23;;;;;;;7.65;6.50;;;14.50;57.80;;;;;;4997076;28;20175;-72
2022/05/03 00:11:17;;;;;;;6.70;6.00;;;14.50;58.00;;;;;;4981212;28;20171;-71
2022/05/03 00:13:47;;;;;;;9.70;6.20;;;14.40;58.30;;;;;;4997359;28;20587;-74
2022/05/03 00:16:17;;;;;;;9.45;6.53;;;14.40;58.10;;;;;;5015209;28;20175;-74
2022/05/03 00:18:44;;;;;;;7.40;5.60;;;14.40;58.60;;;;;;5014488;28;20178;-72
2022/05/03 00:21:12;;;;;;;6.50;5.90;;;14.30;58.40;;;;;;5014114;28;20249;-72
2022/05/03 00:23:38;;;;;;;7.70;7.00;;;14.30;58.70;;;;;;5014929;28;20556;-72
2022/05/03 00:26:05;;;;;;;7.27;6.57;;;14.30;58.70;;;;;;5014936;28;20206;-72
2022/05/03 00:28:31;;;;;;;7.40;6.70;;;14.30;58.90;;;;;;5013868;28;20249;-72
2022/05/03 00:30:58;;;;;;;7.37;5.97;;;14.20;59.00;;;;;;5014372;28;20253;-72
2022/05/03 00:33:24;;;;;;;10.98;7.28;;;14.20;59.30;;;;;;5014687;28;20689;-72
2022/05/03 00:35:50;;;;;;;7.57;5.72;;;14.10;59.30;;;;;;5014567;28;20244;-72
2022/05/03 00:38:16;;;;;;;9.77;7.45;;;14.10;59.60;;;;;;5014023;28;20515;-72
2022/05/03 00:40:51;;;;;;;7.83;7.03;;;14.10;59.70;;;;;;4996323;28;20202;-72
2022/05/03 00:43:50;;;;;;;8.27;6.10;;;14.10;60.50;;;;;;5014656;28;20632;-72
2022/05/03 00:46:18;;;;;;;9.23;6.30;;;14.00;60.90;;;;;;5014410;28;20182;-72
2022/05/03 00:49:02;;;;;;;7.60;6.15;;;14.00;60.40;;;;;;5013832;28;20654;-72
2022/05/03 00:51:34;;;;;;;7.22;6.60;;;14.00;60.80;;;;;;5014140;28;20724;-72
2022/05/03 00:54:09;;;;;;;7.38;6.75;;;14.00;61.40;;;;;;5014292;28;20181;-72
2022/05/03 00:56:44;;;;;;;7.93;7.10;;;14.00;61.50;;;;;;5014343;28;20170;-72
2022/05/03 00:59:30;;;;;;;6.75;6.18;;;13.90;62.30;;;;;;4963900;28;20291;-72
2022/05/03 01:02:03;;;;;;;8.10;7.30;;;13.90;62.80;;;;;;5013459;28;20594;-72
2022/05/03 01:04:42;;;;;;;7.13;6.43;;;13.90;63.00;;;;;;5014135;28;20171;-72
2022/05/03 01:07:27;;;;;;;7.70;6.70;;;13.90;63.00;;;;;;5014202;28;20166;-72
2022/05/03 01:09:52;;;;;;;7.47;6.78;;;13.90;63.60;;;;;;4995813;28;20816;-72
2022/05/03 01:12:25;;;;;;;8.00;6.10;;;14.00;63.50;;;;;;4996180;28;20209;-72
2022/05/03 01:14:57;;;;;;;8.20;6.68;;;14.00;64.50;;;;;;5014013;28;20177;-72
2022/05/03 01:17:31;;;;;;;6.97;6.20;;;14.00;64.70;;;;;;4996130;28;20170;-72
2022/05/03 01:20:05;;;;;;;8.18;6.95;;;14.10;65.00;;;;;;5013379;28;20244;-72
2022/05/03 01:22:44;;;;;;;7.18;6.50;;;14.10;65.60;;;;;;5013747;28;20182;-72
2022/05/03 01:25:13;;;;;;;7.32;6.72;;;14.20;65.90;;;;;;5013873;28;20170;-72
2022/05/03 01:28:14;;;;;;;8.50;7.70;;;14.20;66.10;;;;;;5013334;28;20493;-72
2022/05/03 01:30:47;;;;;;;7.55;6.75;;;14.20;66.60;;;;;;4990438;28;20190;-72
2022/05/03 01:33:17;;;;;;;7.70;6.95;;;14.30;67.10;;;;;;5013482;28;20201;-72
2022/05/03 01:35:49;;;;;;;7.25;6.55;;;14.30;67.20;;;;;;5013554;28;20162;-72
2022/05/03 01:39:01;;;;;;;8.88;6.05;;;14.30;67.10;;;;;;5013265;28;20194;-72
2022/05/03 01:41:40;;;;;;;7.80;6.82;;;14.30;68.00;;;;;;5013141;28;20556;-73
2022/05/03 01:44:30;;;;;;;7.07;6.38;;;14.30;67.30;;;;;;5013598;28;20189;-72
2022/05/03 01:47:15;;;;;;;8.20;7.38;;;14.30;67.90;;;;;;5013219;28;20269;-72
2022/05/03 01:53:18;;;;;;;10.88;7.38;;;14.20;68.40;;;;;;4995765;28;20187;-72
2022/05/03 01:56:04;;;;;;;7.50;6.07;;;14.20;69.20;;;;;;4991035;28;20193;-72
2022/05/03 01:58:50;;;;;;;7.20;6.50;;;14.20;69.20;;;;;;5013056;28;20271;-72
2022/05/03 02:01:45;;;;;;;6.45;5.85;;;14.20;69.50;;;;;;5013647;28;20212;-72
2022/05/03 02:04:38;;;;;;;7.25;6.55;;;14.20;70.30;;;;;;4991512;28;20190;-72
2022/05/03 02:07:20;;;;;;;7.75;6.95;;;14.10;70.40;;;;;;5013760;28;20162;-72
2022/05/03 02:10:06;;;;;;;8.32;7.20;;;14.10;70.20;;;;;;5012535;28;20936;-72
2022/05/03 02:12:32;;;;;;;6.97;5.35;;;14.10;71.40;;;;;;5012797;28;20190;-72
2022/05/03 02:15:10;;;;;;;7.47;6.80;;;14.00;70.60;;;;;;4995042;28;20698;-72
2022/05/03 02:17:35;;;;;;;8.52;7.07;;;14.00;71.40;;;;;;4995265;28;20174;-72
2022/05/03 02:20:39;;;;;;;7.30;6.53;;;14.00;71.60;;;;;;5012415;28;20686;-72
2022/05/03 02:23:15;;;;;;;8.20;7.40;;;13.90;73.00;;;;;;4962663;28;20189;-72
2022/05/03 02:26:14;;;;;;;8.02;7.30;;;13.90;72.60;;;;;;5012698;28;20177;-72
2022/05/03 02:28:59;;;;;;;8.95;8.05;;;13.80;73.30;;;;;;5004642;28;20167;-72
2022/05/03 02:31:41;;;;;;;7.93;7.13;;;13.80;74.10;;;;;;5010867;28;20611;-72
2022/05/03 02:34:23;;;;;;;7.60;6.90;;;13.70;74.40;;;;;;5011706;28;20175;-72
2022/05/03 02:37:18;;;;;;;7.90;7.05;;;13.60;74.90;;;;;;4998944;28;20173;-72
2022/05/03 02:39:47;;;;;;;8.00;6.55;;;13.60;75.70;;;;;;4993083;28;20222;-72
2022/05/03 02:42:14;;;;;;;8.60;7.25;;;13.50;75.00;;;;;;4992987;28;20230;-72
2022/05/03 02:44:40;;;;;;;8.70;7.80;;;13.50;75.10;;;;;;4992655;28;20179;-72
2022/05/03 02:47:12;;;;;;;8.93;7.57;;;13.40;75.60;;;;;;4975477;28;20534;-72
2022/05/03 02:49:56;;;;;;;8.98;6.90;;;13.40;76.50;;;;;;4974416;28;20237;-73
2022/05/03 02:52:44;;;;;;;8.52;7.40;;;13.30;76.80;;;;;;4992635;28;20555;-73
2022/05/03 02:55:25;;;;;;;9.63;6.47;;;13.30;77.50;;;;;;4975162;28;20325;-73
2022/05/03 02:58:00;;;;;;;7.55;6.85;;;13.20;78.10;;;;;;4992158;28;20202;-73
2022/05/03 03:03:47;;;;;;;10.05;7.50;;;13.10;78.10;;;;;;4932331;29;20657;-73
2022/05/03 03:06:21;;;;;;;8.40;6.70;;;13.00;78.40;;;;;;4932202;29;20172;-73
2022/05/03 03:08:50;;;;;;;8.20;7.30;;;12.90;79.10;;;;;;4968101;28;20182;-73
2022/05/03 03:11:33;;;;;;;8.52;7.60;;;12.90;80.20;;;;;;4992089;28;20198;-73
2022/05/03 03:14:13;;;;;;;8.15;5.78;;;12.80;80.20;;;;;;4992173;28;20159;-72
2022/05/03 03:16:49;;;;;;;7.20;6.60;;;12.80;80.50;;;;;;4992204;28;20159;-73
2022/05/03 03:19:51;;;;;;;6.40;5.80;;;12.70;81.20;;;;;;4991879;28;20206;-73
2022/05/03 03:22:20;;;;;;;7.68;6.47;;;12.60;82.10;;;;;;4974831;28;20278;-73
2022/05/03 03:24:48;;;;;;;7.20;6.50;;;12.60;81.70;;;;;;4974991;28;20178;-73
2022/05/03 03:27:14;;;;;;;7.68;6.70;;;12.50;81.90;;;;;;4974824;28;20179;-73
2022/05/03 03:29:41;;;;;;;6.50;5.90;;;12.50;82.80;;;;;;4973985;28;20318;-73
2022/05/03 03:32:09;;;;;;;9.55;6.40;;;12.40;83.10;;;;;;4958233;28;20988;-73
2022/05/03 03:34:39;;;;;;;6.85;6.25;;;12.40;83.70;;;;;;4991847;28;20182;-73
2022/05/03 03:37:07;;;;;;;8.38;7.57;;;12.40;84.10;;;;;;4974533;28;20233;-73
2022/05/03 03:39:34;;;;;;;6.20;5.60;;;12.30;84.70;;;;;;4990645;28;20569;-73
2022/05/03 03:42:05;;;;;;;7.60;6.88;;;12.30;85.00;;;;;;4974434;28;20249;-73
2022/05/03 03:44:31;;;;;;;9.05;6.85;;;12.20;85.90;;;;;;4991929;28;20192;-73
2022/05/03 03:47:02;;;;;;;7.50;6.63;;;12.20;86.00;;;;;;4991827;28;20177;-72
2022/05/03 03:49:29;;;;;;;6.85;6.03;;;12.20;87.30;;;;;;4991482;28;20167;-73
2022/05/03 03:52:06;;;;;;;6.95;6.25;;;12.20;87.30;;;;;;4974542;28;20599;-72
2022/05/03 03:54:33;;;;;;;8.68;7.22;;;12.10;87.60;;;;;;4974482;28;20181;-71
2022/05/03 03:57:00;;;;;;;8.85;7.30;;;12.10;87.90;;;;;;4991750;28;20655;-72
2022/05/03 03:59:30;;;;;;;7.30;6.60;;;12.10;88.30;;;;;;4991405;28;20705;-72
2022/05/03 04:02:01;;;;;;;11.15;7.85;;;12.00;89.30;;;;;;4999073;28;20203;-71
2022/05/03 04:04:33;;;;;;;7.85;7.10;;;12.00;90.10;;;;;;4975579;28;20175;-72
2022/05/03 04:06:59;;;;;;;7.55;6.50;;;12.00;90.40;;;;;;5000959;28;20171;-72
2022/05/03 04:09:25;;;;;;;7.03;5.90;;;12.00;90.40;;;;;;5008792;28;20171;-72
2022/05/03 04:11:53;;;;;;;7.32;6.53;;;12.00;90.50;;;;;;4993049;28;20234;-72
2022/05/03 04:14:19;;;;;;;8.77;7.18;;;12.00;91.00;;;;;;5011454;28;20531;-72
2022/05/03 04:16:46;;;;;;;8.50;6.30;;;12.10;91.30;;;;;;4993793;28;20514;-72
2022/05/03 04:19:12;;;;;;;6.78;6.07;;;12.10;91.50;;;;;;5010537;28;20202;-72
2022/05/03 04:21:39;;;;;;;8.82;6.15;;;12.10;91.50;;;;;;4993451;28;20201;-72
2022/05/03 04:24:06;;;;;;;7.75;6.55;;;12.10;91.50;;;;;;5011116;28;20610;-72
2022/05/03 04:26:32;;;;;;;7.15;6.35;;;12.10;91.70;;;;;;5011148;28;20173;-72
2022/05/03 04:28:59;;;;;;;8.70;6.70;;;12.10;91.90;;;;;;4993250;28;20175;-72
2022/05/03 04:31:29;;;;;;;10.98;7.72;;;12.10;91.90;;;;;;4992714;28;20625;-72
2022/05/03 04:33:55;;;;;;;10.18;6.78;;;12.10;92.60;;;;;;5010954;28;20224;-72
2022/05/03 04:36:21;;;;;;;7.60;6.90;;;12.10;92.40;;;;;;5010530;28;20175;-72
2022/05/03 04:38:48;;;;;;;6.82;6.13;;;12.20;92.60;;;;;;5010529;28;20638;-71
2022/05/03 04:41:14;;;;;;;8.65;6.20;;;12.20;92.60;;;;;;5010493;28;20543;-72
2022/05/03 04:43:40;;;;;;;6.68;6.03;;;12.20;92.60;;;;;;5010663;28;20221;-71
2022/05/03 04:46:05;;;;;;;9.30;6.30;;;12.20;92.70;;;;;;5005682;28;20175;-71
2022/05/03 04:48:31;;;;;;;7.20;6.50;;;12.20;92.90;;;;;;5000933;28;20178;-71
2022/05/03 04:50:57;;;;;;;6.53;5.50;;;12.20;93.20;;;;;;4993710;28;20170;-71
2022/05/03 04:53:23;;;;;;;6.40;5.47;;;12.30;93.20;;;;;;4986373;28;20210;-71
2022/05/03 04:55:49;;;;;;;6.60;5.30;;;12.20;93.30;;;;;;5014149;28;20698;-72
2022/05/03 04:58:15;;;;;;;9.23;6.18;;;12.30;93.40;;;;;;5013980;28;20644;-72
2022/05/03 05:00:41;;;;;;;7.57;6.23;;;12.30;93.50;;;;;;4996273;28;20206;-72
2022/05/03 05:03:07;;;;;;;5.45;4.68;;;12.40;93.60;;;;;;5013992;28;20689;-72
2022/05/03 05:05:33;;;;;;;7.13;5.77;;;12.40;93.60;;;;;;4996741;28;20649;-72
2022/05/03 05:08:06;;;;;;;7.10;5.53;;;12.40;93.60;;;;;;4996233;28;20297;-72
2022/05/03 05:10:33;;;;;;;7.60;5.35;;;12.40;93.90;;;;;;4995653;28;21300;-72
2022/05/03 05:13:00;;;;;;;9.75;6.07;;;12.40;94.00;;;;;;4996022;28;20694;-72
2022/05/03 05:15:27;;;;;;;7.10;5.43;;;12.50;94.00;;;;;;5013543;28;20265;-72
2022/05/03 05:18:00;;;;;;;6.20;5.60;;;12.50;94.10;;;;;;5013218;28;20178;-71
2022/05/03 05:20:26;;;;;;;6.13;5.50;;;12.50;94.20;;;;;;5013172;28;20329;-71
2022/05/03 05:22:52;;;;;;;8.23;6.10;;;12.60;94.20;;;;;;5003204;28;20273;-71
2022/05/03 05:25:18;;;;;;;6.53;5.85;;;12.60;94.30;;;;;;5011238;28;20510;-71
2022/05/03 05:27:44;;;;;;;6.10;5.50;;;12.70;94.60;;;;;;5004469;28;20542;-71
2022/05/03 05:30:10;;;;;;;9.17;5.40;;;12.70;94.60;;;;;;4976049;28;20178;-71
2022/05/03 05:32:37;;;;;;;6.25;5.00;;;12.80;94.80;;;;;;5008568;28;20641;-71
2022/05/03 05:35:04;;;;;;;6.65;4.70;;;12.80;94.80;;;;;;5007894;28;20174;-71
2022/05/03 05:37:31;;;;;;;6.57;5.32;;;12.90;94.80;;;;;;5004194;28;20590;-71
2022/05/03 05:39:56;;;;;;;5.85;4.72;;;13.00;94.90;;;;;;4970443;28;20237;-71
2022/05/03 05:42:22;;;;;;;6.30;5.70;;;13.00;95.20;;;;;;4993839;28;20214;-71
2022/05/03 05:44:48;;;;;;;5.90;5.30;;;13.10;95.00;;;;;;4994009;28;20182;-71
2022/05/03 05:47:14;;;;;;;7.50;6.13;;;13.20;95.00;;;;;;4993818;28;20962;-71
2022/05/03 05:49:41;;;;;;;6.22;5.63;;;13.30;95.10;;;;;;4991827;28;20175;-71
2022/05/03 05:54:51;;;;;;;7.10;5.45;;;13.80;95.70;;;;;;4993228;28;20623;-71
2022/05/03 05:57:17;;;;;;;7.73;5.07;;;14.30;95.80;;;;;;5009095;28;20176;-71
2022/05/03 05:59:42;;;;;;;7.03;5.10;;;14.70;95.50;;;;;;4994381;28;20194;-71
2022/05/03 06:02:08;;;;;;;7.27;5.00;;;14.90;95.00;;;;;;4985292;28;20226;-71
2022/05/03 06:04:34;;;;;;;9.00;5.77;;;15.00;94.60;;;;;;4990359;28;20242;-71
2022/05/03 06:07:00;;;;;;;5.80;5.30;;;15.10;94.30;;;;;;4992951;28;20178;-71
2022/05/03 06:09:26;;;;;;;5.90;5.30;;;15.10;94.10;;;;;;4990802;28;20209;-71
2022/05/03 06:11:52;;;;;;;5.90;4.60;;;15.40;94.30;;;;;;4985430;28;20222;-71
2022/05/03 06:14:18;;;;;;;7.40;5.90;;;15.80;94.70;;;;;;4965204;28;20182;-71
2022/05/03 06:16:55;;;;;;;7.00;5.30;;;16.40;95.10;;;;;;4992424;28;20202;-72
2022/05/03 06:19:21;;;;;;;5.73;4.07;;;16.90;94.80;;;;;;4990344;28;20842;-72
2022/05/03 06:21:47;;;;;;;7.80;4.87;;;17.60;94.60;;;;;;4992448;28;20613;-72
2022/05/03 06:24:14;;;;;;;5.50;4.30;;;18.10;93.90;;;;;;4991168;28;20566;-72
2022/05/03 06:26:40;;;;;;;4.63;4.10;;;18.60;93.20;;;;;;4992695;28;20577;-72
2022/05/03 06:29:08;;;;;;;5.70;4.80;;;19.20;93.30;;;;;;4992278;28;20570;-72
2022/05/03 06:31:38;;;;;;;5.10;4.00;;;19.90;93.10;;;;;;4990589;28;20634;-72
2022/05/03 06:34:07;;;;;;;4.37;3.97;;;20.70;92.30;;;;;;4992536;28;20578;-72
2022/05/03 06:36:35;;;;;;;4.17;3.77;;;21.40;91.60;;;;;;4992065;28;21035;-72
2022/05/03 06:39:02;;;;;;;5.50;4.97;;;22.10;91.10;;;;;;4990558;28;20998;-72
2022/05/03 06:41:27;;;;;;;4.43;3.60;;;22.90;90.10;;;;;;4992260;28;20617;-72
2022/05/03 06:43:56;;;;;;;4.50;4.10;;;23.60;88.90;;;;;;4991087;28;20574;-72
2022/05/03 06:46:22;;;;;;;4.20;3.07;;;24.20;86.40;;;;;;4991572;28;20590;-71
2022/05/03 06:48:48;;;;;;;5.60;4.00;;;24.70;83.60;;;;;;4992100;28;20578;-71
2022/05/03 06:51:13;;;;;;;7.00;3.63;;;25.20;81.60;;;;;;4991638;28;20194;-72
2022/05/03 06:53:39;;;;;;;4.87;3.43;;;25.70;79.30;;;;;;4977217;28;21084;-72
2022/05/03 06:56:05;;;;;;;3.93;3.53;;;26.10;77.50;;;;;;4974920;28;20229;-72
2022/05/03 06:58:30;;;;;;;4.60;3.80;;;26.60;76.40;;;;;;4991705;28;20171;-72
2022/05/03 07:00:56;;;;;;;4.67;3.53;;;27.10;72.60;;;;;;4992377;28;20194;-72
2022/05/03 07:03:22;;;;;;;4.10;3.70;;;27.60;69.40;;;;;;4975697;28;20198;-73
2022/05/03 07:05:48;;;;;;;3.00;2.70;;;27.90;67.30;;;;;;4992813;28;20171;-73
2022/05/03 07:08:14;;;;;;;6.63;3.30;;;28.20;65.50;;;;;;4973719;28;20670;-72
2022/05/03 07:10:41;;;;;;;3.93;3.47;;;28.60;63.70;;;;;;4991049;28;20202;-72
2022/05/03 07:13:13;;;;;;;3.60;3.17;;;28.80;62.30;;;;;;4991189;28;20225;-73
2022/05/03 07:15:39;;;;;;;3.43;3.10;;;29.10;60.20;;;;;;4988825;28;20586;-72
2022/05/03 07:23:33;;;;;;;3.90;3.47;;;30.00;56.90;;;;;;4972421;28;20571;-72
2022/05/03 07:25:59;;;;;;;3.50;2.97;;;30.30;57.00;;;;;;4972349;28;20598;-73
2022/05/03 07:28:25;;;;;;;3.63;3.33;;;30.60;55.60;;;;;;4983411;28;20206;-72
2022/05/03 07:30:51;;;;;;;3.37;3.07;;;30.70;54.90;;;;;;4975385;28;20217;-73
2022/05/03 07:33:17;;;;;;;4.73;2.70;;;30.90;54.10;;;;;;4994880;28;20666;-72
2022/05/03 07:35:43;;;;;;;3.77;3.33;;;31.10;53.50;;;;;;4991509;28;20277;-73
2022/05/03 07:38:09;;;;;;;3.40;2.90;;;31.20;52.30;;;;;;4999263;28;20182;-71
2022/05/03 07:40:35;;;;;;;3.30;3.00;;;31.20;51.90;;;;;;5011120;28;20751;-71
2022/05/03 07:43:03;;;;;;;3.70;3.40;;;31.40;52.00;;;;;;5011367;28;20229;-71
2022/05/03 07:45:29;;;;;;;3.37;3.00;;;31.60;51.70;;;;;;5011429;28;20181;-71
2022/05/03 07:47:55;;;;;;;3.87;3.37;;;31.90;51.40;;;;;;5001996;28;20582;-71
2022/05/03 07:50:20;;;;;;;4.13;3.27;;;32.10;50.40;;;;;;4991171;28;20624;-72
2022/05/03 07:52:49;;;;;;;3.80;2.60;;;32.30;49.70;;;;;;4974294;28;20199;-72
2022/05/03 07:55:15;;;;;;;5.10;2.80;;;32.50;49.10;;;;;;4974253;28;20605;-72
2022/05/03 07:57:40;;;;;;;3.20;2.90;;;32.70;48.70;;;;;;4995852;28;20197;-72
2022/05/03 08:00:07;;;;;;;2.90;2.40;;;32.70;47.00;;;;;;4991367;28;20332;-72
2022/05/03 08:02:33;;;;;;;4.70;2.90;;;32.90;47.00;;;;;;4999591;28;20195;-72
2022/05/03 08:04:59;;;;;;;3.20;2.90;;;33.10;46.40;;;;;;5000760;28;20750;-74
2022/05/03 08:07:25;;;;;;;3.20;2.90;;;33.20;46.50;;;;;;4988375;28;20177;-73
2022/05/03 08:09:51;;;;;;;3.47;3.00;;;33.40;46.20;;;;;;4990637;28;20636;-73
2022/05/03 08:12:16;;;;;;;3.90;2.80;;;33.60;45.40;;;;;;4989985;28;20203;-73
2022/05/03 08:14:42;;;;;;;3.40;2.73;;;33.70;45.10;;;;;;4991401;28;20595;-73
2022/05/03 08:17:08;;;;;;;8.67;2.77;;;33.90;44.10;;;;;;4990539;28;20671;-74
2022/05/03 08:19:35;;;;;;;3.07;2.00;;;33.90;43.40;;;;;;4972966;28;21220;-73
2022/05/03 08:22:01;;;;;;;3.33;2.10;;;34.10;43.10;;;;;;4991013;28;20625;-74
2022/05/03 08:24:27;;;;;;;4.00;2.40;;;34.20;42.80;;;;;;4991244;28;20586;-74
2022/05/03 08:26:53;;;;;;;3.90;2.50;;;34.20;41.70;;;;;;4994561;28;20193;-75
2022/05/03 08:29:19;;;;;;;2.63;2.10;;;34.20;41.60;;;;;;4995093;28;21028;-75
2022/05/03 08:31:45;;;;;;;3.50;2.23;;;34.30;41.50;;;;;;4976742;28;20625;-75
2022/05/03 08:34:11;;;;;;;2.87;2.50;;;34.40;41.10;;;;;;4994626;28;20940;-75
2022/05/03 08:36:38;;;;;;;2.43;2.23;;;34.50;40.60;;;;;;4994833;28;20567;-75
2022/05/03 08:42:01;;;;;;;2.60;2.07;;;34.60;40.10;;;;;;4974765;28;20603;-75
2022/05/03 08:44:28;;;;;;;4.80;2.27;;;34.60;40.00;;;;;;4975174;28;21073;-75
2022/05/03 08:46:56;;;;;;;2.77;2.17;;;34.70;39.60;;;;;;4974938;28;20573;-75
2022/05/03 08:49:25;;;;;;;4.43;2.37;;;34.70;39.50;;;;;;4974014;28;20605;-75
2022/05/03 08:51:54;;;;;;;3.03;1.67;;;34.70;38.60;;;;;;4984820;28;20657;-75
2022/05/03 08:54:25;;;;;;;2.53;2.13;;;34.60;38.20;;;;;;4994640;28;20784;-75
2022/05/03 08:56:52;;;;;;;2.70;2.30;;;34.50;38.20;;;;;;4994206;28;20946;-75
2022/05/03 08:59:17;;;;;;;3.53;2.10;;;34.40;38.10;;;;;;4993886;28;20647;-75
2022/05/03 09:01:43;;;;;;;1.80;1.47;;;34.40;38.00;;;;;;4987343;28;20199;-74
2022/05/03 09:04:10;;;;;;;2.43;1.70;;;34.40;38.00;;;;;;4993046;28;20588;-74
2022/05/03 09:06:47;;;;;;;2.73;1.97;;;34.40;37.50;;;;;;4994013;28;20187;-75
2022/05/03 09:09:15;;;;;;;3.93;2.17;;;34.50;37.60;;;;;;4993392;28;20587;-75
2022/05/03 09:11:49;;;;;;;3.70;2.30;;;34.60;37.20;;;;;;4993114;28;20625;-75
2022/05/03 09:14:36;;;;;;;3.83;2.50;;;34.70;37.30;;;;;;4976733;28;20607;-75
2022/05/03 09:17:02;;;;;;;3.10;2.27;;;34.80;37.00;;;;;;4976571;28;20587;-75
2022/05/03 09:19:28;;;;;;;2.30;1.80;;;34.90;37.00;;;;;;4993477;28;21015;-75
2022/05/03 09:25:06;;;;;;;4.40;1.70;;;35.20;36.50;;;;;;4994112;28;20555;-74
2022/05/03 09:27:32;;;;;;;3.20;2.90;;;35.30;36.00;;;;;;4941892;28;20575;-75
2022/05/03 09:30:01;;;;;;;4.63;2.17;;;35.20;35.60;;;;;;4974344;28;20645;-74
2022/05/03 09:32:56;;;;;;;3.20;2.50;;;35.30;35.60;;;;;;4973901;28;20260;-75
2022/05/03 09:35:35;;;;;;;3.67;2.10;;;35.40;35.80;;;;;;4973003;28;20602;-75
2022/05/03 09:38:04;;;;;;;3.80;1.70;;;35.50;35.00;;;;;;4972311;28;20673;-74
2022/05/03 09:40:41;;;;;;;2.33;1.60;;;35.50;35.20;;;;;;4974076;28;20629;-75
2022/05/03 09:43:07;;;;;;;2.43;1.90;;;35.60;33.80;;;;;;4973938;28;20977;-74
2022/05/03 09:45:34;;;;;;;2.20;1.87;;;35.50;34.20;;;;;;4975529;28;20569;-74
2022/05/03 09:48:00;;;;;;;2.33;2.13;;;35.50;34.70;;;;;;4993026;28;20624;-74
2022/05/03 09:50:29;;;;;;;3.10;2.00;;;35.60;34.60;;;;;;4993233;28;20588;-75
2022/05/03 09:52:56;;;;;;;3.93;2.03;;;35.70;34.50;;;;;;4993225;28;20642;-74
2022/05/03 09:55:34;;;;;;;2.80;1.77;;;35.60;33.90;;;;;;4991839;28;20600;-75
2022/05/03 09:58:02;;;;;;;3.60;2.07;;;35.50;33.60;;;;;;4989273;28;20579;-74
2022/05/03 10:00:30;;;;;;;3.27;2.40;;;35.40;33.50;;;;;;4992682;28;20670;-75
2022/05/03 10:02:58;;;;;;;3.90;1.97;;;35.30;33.80;;;;;;4981176;28;20622;-75
2022/05/03 10:05:28;;;;;;;2.27;1.70;;;35.30;33.60;;;;;;4993347;28;21191;-75
2022/05/03 10:07:54;;;;;;;3.77;2.10;;;35.30;33.40;;;;;;5004223;28;21202;-75
2022/05/03 10:10:21;;;;;;;2.80;2.40;;;35.30;33.40;;;;;;4995019;28;21259;-75
2022/05/03 10:12:49;;;;;;;2.63;2.07;;;35.20;32.70;;;;;;5001120;28;20631;-75
2022/05/03 10:20:35;;;;;;;2.50;2.20;;;35.10;32.60;;;;;;4992888;28;20688;-75
2022/05/03 10:20:55;;;;;;;3.40;2.00;;;35.00;32.80;;;;;;4992143;28;20643;-75
2022/05/03 10:23:32;;;;;;;3.20;2.30;;;35.00;32.70;;;;;;4992903;28;20626;-75
2022/05/03 10:26:06;;;;;;;2.23;1.73;;;35.00;33.00;;;;;;4992808;28;20686;-75
2022/05/03 10:29:00;;;;;;;3.40;2.57;;;35.10;32.60;;;;;;4974379;28;20992;-75
2022/05/03 10:31:27;;;;;;;4.17;2.73;;;35.30;33.40;;;;;;4992372;28;20706;-75
2022/05/03 10:33:52;;;;;;;2.40;2.10;;;35.30;32.40;;;;;;4992695;28;20601;-75
2022/05/03 10:36:30;;;;;;;4.60;2.50;;;35.10;32.60;;;;;;4992743;28;20621;-75
2022/05/03 10:39:11;;;;;;;3.30;2.53;;;35.10;32.40;;;;;;4974623;28;20173;-75
2022/05/03 10:42:13;;;;;;;3.47;2.33;;;35.00;32.40;;;;;;4992343;28;20967;-75
2022/05/03 10:44:42;;;;;;;3.63;3.27;;;34.90;32.70;;;;;;4960608;28;20587;-76
2022/05/03 10:47:09;;;;;;;5.40;3.27;;;34.70;32.20;;;;;;4975248;28;21186;-75
2022/05/03 10:50:04;;;;;;;3.70;2.67;;;34.50;32.10;;;;;;4991287;28;20912;-75
2022/05/03 10:52:30;;;;;;;2.40;2.00;;;34.30;32.20;;;;;;4992437;28;20644;-76
2022/05/03 10:55:09;;;;;;;4.23;2.40;;;34.00;32.20;;;;;;4994984;28;21219;-76
2022/05/03 10:58:13;;;;;;;3.27;2.33;;;33.80;32.30;;;;;;4967235;28;20200;-75
2022/05/03 11:01:02;;;;;;;4.40;2.80;;;33.60;32.10;;;;;;4957672;28;21345;-75
2022/05/03 11:03:28;;;;;;;3.10;2.10;;;33.30;31.50;;;;;;4990126;28;20586;-76
2022/05/03 11:06:18;;;;;;;3.70;2.17;;;33.20;32.10;;;;;;4992231;28;20574;-76
2022/05/03 11:11:49;;;;;;;4.00;3.27;;;33.00;32.20;;;;;;5010923;28;20625;-76
2022/05/03 11:14:21;;;;;;;3.33;2.93;;;32.90;31.80;;;;;;4958035;28;20606;-76
2022/05/03 11:16:50;;;;;;;3.77;3.37;;;32.90;32.10;;;;;;4992833;28;20575;-76
2022/05/03 11:19:18;;;;;;;3.40;3.10;;;32.70;31.90;;;;;;5009146;28;20959;-76
2022/05/03 11:21:45;;;;;;;3.87;3.37;;;32.60;32.00;;;;;;4974205;28;20603;-76
2022/05/03 11:24:27;;;;;;;4.37;3.57;;;32.60;31.90;;;;;;4992436;28;20575;-76
2022/05/03 11:26:57;;;;;;;4.57;2.80;;;32.50;32.10;;;;;;4991843;28;20594;-76
2022/05/03 11:29:31;;;;;;;3.47;3.17;;;32.50;32.10;;;;;;4992064;28;20563;-76
2022/05/03 11:31:59;;;;;;;6.07;3.57;;;32.40;31.70;;;;;;4992022;28;21229;-75
2022/05/03 11:34:26;;;;;;;5.03;3.40;;;32.20;32.00;;;;;;4993058;28;20589;-75
2022/05/03 11:36:52;;;;;;;4.27;3.87;;;32.00;31.50;;;;;;4994425;28;20667;-75
2022/05/03 11:39:20;;;;;;;3.40;3.10;;;31.80;31.30;;;;;;5001466;28;20727;-75
2022/05/03 11:41:47;;;;;;;3.70;3.37;;;31.50;31.40;;;;;;5003609;28;20672;-76
2022/05/03 11:44:13;;;;;;;7.70;3.90;;;31.30;31.40;;;;;;4993570;28;20557;-76
2022/05/03 11:46:40;;;;;;;3.43;3.03;;;31.10;31.60;;;;;;4992085;28;20585;-76
2022/05/03 11:49:09;;;;;;;5.83;3.47;;;30.90;31.90;;;;;;4991909;28;20578;-75
2022/05/03 11:57:31;;;;;;;3.90;3.17;;;30.50;32.60;;;;;;4991597;28;20658;-75
2022/05/03 11:59:58;;;;;;;3.67;3.13;;;30.50;32.50;;;;;;4974718;28;20654;-76
2022/05/03 12:02:28;;;;;;;4.93;3.97;;;30.40;32.40;;;;;;4978125;28;20597;-76
2022/05/03 12:05:11;;;;;;;4.43;3.67;;;30.30;32.20;;;;;;4978213;28;20596;-75
2022/05/03 12:07:38;;;;;;;6.83;4.97;;;30.10;32.00;;;;;;4995050;28;20570;-75
2022/05/03 12:10:25;;;;;;;4.90;3.67;;;30.00;32.20;;;;;;4995091;28;20569;-76
2022/05/03 12:13:09;;;;;;;4.53;3.53;;;29.90;32.50;;;;;;4977826;28;21038;-75
2022/05/03 12:15:40;;;;;;;4.50;3.17;;;29.80;32.40;;;;;;4995233;28;20583;-76
2022/05/03 12:18:28;;;;;;;4.77;3.10;;;29.60;32.50;;;;;;4994967;28;20595;-75
2022/05/03 12:20:59;;;;;;;3.87;3.03;;;29.40;32.50;;;;;;4986686;28;20688;-76
2022/05/03 12:23:33;;;;;;;4.73;3.50;;;29.40;32.60;;;;;;4995301;28;20939;-75
2022/05/03 12:26:01;;;;;;;3.20;2.77;;;29.20;32.40;;;;;;4960759;28;20578;-75
2022/05/03 12:28:39;;;;;;;4.10;3.77;;;29.10;32.70;;;;;;4977646;28;20633;-75
2022/05/03 12:31:06;;;;;;;3.90;3.50;;;28.90;32.50;;;;;;4977023;28;20589;-76
2022/05/03 12:33:32;;;;;;;3.60;3.00;;;28.60;32.40;;;;;;4994971;28;20946;-75
2022/05/03 12:35:59;;;;;;;4.60;3.40;;;28.40;32.40;;;;;;4994813;28;20636;-76
2022/05/03 12:38:26;;;;;;;7.00;3.53;;;28.20;32.80;;;;;;4994391;28;20582;-75
2022/05/03 12:40:56;;;;;;;4.77;3.17;;;28.00;32.90;;;;;;4994307;28;20614;-75
2022/05/03 12:43:26;;;;;;;6.43;4.23;;;27.70;32.80;;;;;;4994265;28;20700;-76
2022/05/03 12:46:06;;;;;;;4.10;3.17;;;27.40;32.60;;;;;;4994869;28;20919;-75
2022/05/03 12:48:36;;;;;;;4.40;3.67;;;27.00;32.70;;;;;;4975287;28;20621;-75
2022/05/03 12:51:04;;;;;;;4.03;3.73;;;26.70;32.50;;;;;;4994086;28;20566;-75
2022/05/03 12:53:32;;;;;;;5.30;4.67;;;26.40;32.50;;;;;;4994388;28;20926;-75
2022/05/03 12:58:44;;;;;;;6.20;3.20;;;25.70;33.50;;;;;;4993927;28;20589;-75
2022/05/03 13:01:11;;;;;;;4.27;3.80;;;25.50;33.40;;;;;;4993656;28;20622;-75
2022/05/03 13:03:38;;;;;;;4.90;3.17;;;25.20;33.40;;;;;;4994174;28;20573;-76
2022/05/03 13:06:04;;;;;;;3.07;2.77;;;25.00;33.80;;;;;;5003956;28;21178;-76
2022/05/03 13:08:29;;;;;;;4.13;3.10;;;24.80;33.90;;;;;;5013009;28;20569;-75
2022/05/03 13:10:55;;;;;;;4.40;3.70;;;24.60;34.00;;;;;;5013143;28;20986;-76
2022/05/03 13:13:21;;;;;;;3.50;3.00;;;24.40;34.00;;;;;;4997545;28;20676;-75
2022/05/03 13:15:47;;;;;;;3.73;3.40;;;24.30;34.30;;;;;;4993624;28;20206;-76
2022/05/03 13:18:13;;;;;;;5.70;3.50;;;24.10;34.40;;;;;;4993295;28;20701;-75
2022/05/03 13:20:39;;;;;;;3.20;2.90;;;24.00;34.60;;;;;;4960531;28;20626;-76
2022/05/03 13:23:05;;;;;;;5.10;3.50;;;23.90;34.80;;;;;;4976203;28;20198;-77
2022/05/03 13:25:31;;;;;;;3.23;2.93;;;23.90;34.90;;;;;;4993834;28;20217;-76
2022/05/03 13:27:57;;;;;;;4.60;3.80;;;23.70;35.00;;;;;;4976020;28;20977;-77
2022/05/03 13:30:24;;;;;;;3.40;3.10;;;23.70;35.00;;;;;;4993592;28;20569;-76
2022/05/03 13:32:49;;;;;;;5.90;3.73;;;23.70;35.10;;;;;;4993297;28;20622;-77
2022/05/03 13:40:28;;;;;;;4.20;3.10;;;23.60;35.30;;;;;;4993974;28;20578;-77
2022/05/03 13:40:46;;;;;;;3.40;3.00;;;23.50;35.60;;;;;;4993444;28;20645;-76
2022/05/03 13:43:11;;;;;;;4.80;3.37;;;23.40;35.60;;;;;;4993148;28;20614;-77